sensor_id;sensor_type;location;lat;lon;timestamp;P1;durP1;ratioP1;P2;durP2;ratioP2
56712;SDS011;42589;45.536;9.032;2023-04-03T00:01:08;20.08;;;11.60;;
56712;SDS011;42589;45.536;9.032;2023-04-03T00:04:09;24.65;;;11.50;;
56712;SDS011;42589;45.536;9.032;2023-04-03T00:07:10;21.10;;;11.40;;
56712;SDS011;42589;45.536;9.032;2023-04-03T00:10:12;24.98;;;11.18;;
56712;SDS011;42589;45.536;9.032;2023-04-03T00:13:13;19.92;;;11.88;;
56712;SDS011;42589;45.536;9.032;2023-04-03T00:16:14;20.25;;;11.55;;
56712;SDS011;42589;45.536;9.032;2023-04-03T00:19:15;20.05;;;11.63;;
56712;SDS011;42589;45.536;9.032;2023-04-03T00:22:16;22.35;;;11.65;;
56712;SDS011;42589;45.536;9.032;2023-04-03T00:25:16;20.63;;;11.82;;
56712;SDS011;42589;45.536;9.032;2023-04-03T00:28:17;20.73;;;11.70;;
56712;SDS011;42589;45.536;9.032;2023-04-03T00:31:18;21.02;;;11.80;;
56712;SDS011;42589;45.536;9.032;2023-04-03T00:34:19;20.23;;;12.15;;
56712;SDS011;42589;45.536;9.032;2023-04-03T00:37:21;20.73;;;12.10;;
56712;SDS011;42589;45.536;9.032;2023-04-03T00:40:23;23.25;;;11.00;;
56712;SDS011;42589;45.536;9.032;2023-04-03T00:43:25;17.58;;;11.52;;
56712;SDS011;42589;45.536;9.032;2023-04-03T00:46:29;18.00;;;11.43;;
56712;SDS011;42589;45.536;9.032;2023-04-03T00:49:29;19.77;;;12.13;;
56712;SDS011;42589;45.536;9.032;2023-04-03T00:52:30;20.05;;;11.55;;
56712;SDS011;42589;45.536;9.032;2023-04-03T00:55:32;20.45;;;11.93;;
56712;SDS011;42589;45.536;9.032;2023-04-03T00:58:40;18.65;;;12.32;;
56712;SDS011;42589;45.536;9.032;2023-04-03T01:01:45;20.33;;;12.15;;
56712;SDS011;42589;45.536;9.032;2023-04-03T01:04:46;22.13;;;12.65;;
56712;SDS011;42589;45.536;9.032;2023-04-03T01:07:47;19.83;;;12.70;;
56712;SDS011;42589;45.536;9.032;2023-04-03T01:10:51;20.25;;;13.45;;
56712;SDS011;42589;45.536;9.032;2023-04-03T01:13:51;17.80;;;13.60;;
56712;SDS011;42589;45.536;9.032;2023-04-03T01:16:53;19.10;;;14.57;;
56712;SDS011;42589;45.536;9.032;2023-04-03T01:20:15;18.30;;;14.48;;
56712;SDS011;42589;45.536;9.032;2023-04-03T01:26:37;20.95;;;15.13;;
56712;SDS011;42589;45.536;9.032;2023-04-03T01:29:39;17.45;;;14.00;;
56712;SDS011;42589;45.536;9.032;2023-04-03T01:32:41;21.20;;;14.90;;
56712;SDS011;42589;45.536;9.032;2023-04-03T01:35:42;20.83;;;14.52;;
56712;SDS011;42589;45.536;9.032;2023-04-03T01:38:44;19.48;;;14.43;;
56712;SDS011;42589;45.536;9.032;2023-04-03T01:41:45;16.85;;;14.25;;
56712;SDS011;42589;45.536;9.032;2023-04-03T01:44:47;19.60;;;14.68;;
56712;SDS011;42589;45.536;9.032;2023-04-03T01:47:48;21.48;;;14.38;;
56712;SDS011;42589;45.536;9.032;2023-04-03T01:50:50;19.00;;;14.80;;
56712;SDS011;42589;45.536;9.032;2023-04-03T01:53:51;17.17;;;13.93;;
56712;SDS011;42589;45.536;9.032;2023-04-03T01:56:52;19.10;;;14.55;;
56712;SDS011;42589;45.536;9.032;2023-04-03T01:59:53;20.77;;;14.63;;
56712;SDS011;42589;45.536;9.032;2023-04-03T02:02:54;20.02;;;14.68;;
56712;SDS011;42589;45.536;9.032;2023-04-03T02:05:55;19.83;;;15.13;;
56712;SDS011;42589;45.536;9.032;2023-04-03T02:08:56;18.17;;;14.10;;
56712;SDS011;42589;45.536;9.032;2023-04-03T02:11:58;17.35;;;14.35;;
56712;SDS011;42589;45.536;9.032;2023-04-03T02:15:02;20.15;;;13.80;;
56712;SDS011;42589;45.536;9.032;2023-04-03T02:18:08;17.10;;;14.23;;
56712;SDS011;42589;45.536;9.032;2023-04-03T02:24:11;20.05;;;14.13;;
56712;SDS011;42589;45.536;9.032;2023-04-03T02:27:12;20.33;;;14.45;;
56712;SDS011;42589;45.536;9.032;2023-04-03T02:30:13;18.83;;;13.88;;
56712;SDS011;42589;45.536;9.032;2023-04-03T02:33:14;19.33;;;14.45;;
56712;SDS011;42589;45.536;9.032;2023-04-03T02:36:17;17.15;;;14.25;;
56712;SDS011;42589;45.536;9.032;2023-04-03T02:39:18;16.42;;;13.15;;
56712;SDS011;42589;45.536;9.032;2023-04-03T02:42:20;16.90;;;13.55;;
56712;SDS011;42589;45.536;9.032;2023-04-03T02:45:21;18.95;;;13.85;;
56712;SDS011;42589;45.536;9.032;2023-04-03T02:48:23;18.35;;;14.13;;
56712;SDS011;42589;45.536;9.032;2023-04-03T02:51:24;17.90;;;14.15;;
56712;SDS011;42589;45.536;9.032;2023-04-03T02:54:27;16.33;;;13.85;;
56712;SDS011;42589;45.536;9.032;2023-04-03T02:57:29;16.33;;;14.40;;
56712;SDS011;42589;45.536;9.032;2023-04-03T03:00:30;19.15;;;14.13;;
56712;SDS011;42589;45.536;9.032;2023-04-03T03:03:31;16.83;;;13.73;;
56712;SDS011;42589;45.536;9.032;2023-04-03T03:06:32;21.13;;;14.23;;
56712;SDS011;42589;45.536;9.032;2023-04-03T03:09:34;21.23;;;14.35;;
56712;SDS011;42589;45.536;9.032;2023-04-03T03:12:35;17.65;;;13.82;;
56712;SDS011;42589;45.536;9.032;2023-04-03T03:15:36;17.88;;;13.88;;
56712;SDS011;42589;45.536;9.032;2023-04-03T03:18:38;21.60;;;14.63;;
56712;SDS011;42589;45.536;9.032;2023-04-03T03:21:39;17.50;;;13.77;;
56712;SDS011;42589;45.536;9.032;2023-04-03T03:24:41;16.95;;;13.45;;
56712;SDS011;42589;45.536;9.032;2023-04-03T03:27:43;19.92;;;14.32;;
56712;SDS011;42589;45.536;9.032;2023-04-03T03:30:44;17.65;;;14.05;;
56712;SDS011;42589;45.536;9.032;2023-04-03T03:33:45;19.92;;;13.65;;
56712;SDS011;42589;45.536;9.032;2023-04-03T03:36:46;20.55;;;14.68;;
56712;SDS011;42589;45.536;9.032;2023-04-03T03:39:47;17.25;;;12.70;;
56712;SDS011;42589;45.536;9.032;2023-04-03T03:42:48;17.65;;;13.70;;
56712;SDS011;42589;45.536;9.032;2023-04-03T03:45:50;20.90;;;13.95;;
56712;SDS011;42589;45.536;9.032;2023-04-03T03:48:52;16.63;;;12.98;;
56712;SDS011;42589;45.536;9.032;2023-04-03T03:51:53;18.92;;;13.73;;
56712;SDS011;42589;45.536;9.032;2023-04-03T03:54:54;22.48;;;13.50;;
56712;SDS011;42589;45.536;9.032;2023-04-03T03:57:56;19.25;;;13.20;;
56712;SDS011;42589;45.536;9.032;2023-04-03T04:01:01;20.73;;;13.50;;
56712;SDS011;42589;45.536;9.032;2023-04-03T04:04:03;19.70;;;12.98;;
56712;SDS011;42589;45.536;9.032;2023-04-03T04:07:04;18.52;;;13.63;;
56712;SDS011;42589;45.536;9.032;2023-04-03T04:10:05;17.65;;;12.65;;
56712;SDS011;42589;45.536;9.032;2023-04-03T04:13:07;16.63;;;11.95;;
56712;SDS011;42589;45.536;9.032;2023-04-03T04:16:07;18.27;;;12.05;;
56712;SDS011;42589;45.536;9.032;2023-04-03T04:19:17;19.45;;;13.25;;
56712;SDS011;42589;45.536;9.032;2023-04-03T04:22:28;18.73;;;12.65;;
56712;SDS011;42589;45.536;9.032;2023-04-03T04:25:40;18.92;;;13.00;;
56712;SDS011;42589;45.536;9.032;2023-04-03T04:28:45;22.90;;;12.75;;
56712;SDS011;42589;45.536;9.032;2023-04-03T04:31:54;18.23;;;12.55;;
56712;SDS011;42589;45.536;9.032;2023-04-03T04:35:03;17.95;;;12.57;;
56712;SDS011;42589;45.536;9.032;2023-04-03T04:38:31;18.80;;;13.35;;
56712;SDS011;42589;45.536;9.032;2023-04-03T04:41:33;20.27;;;12.63;;
56712;SDS011;42589;45.536;9.032;2023-04-03T04:44:43;21.75;;;13.52;;
56712;SDS011;42589;45.536;9.032;2023-04-03T04:47:47;18.92;;;12.65;;
56712;SDS011;42589;45.536;9.032;2023-04-03T04:50:49;19.65;;;12.88;;
56712;SDS011;42589;45.536;9.032;2023-04-03T04:53:50;17.70;;;12.15;;
56712;SDS011;42589;45.536;9.032;2023-04-03T04:56:51;20.02;;;13.23;;
56712;SDS011;42589;45.536;9.032;2023-04-03T04:59:52;19.13;;;12.75;;
56712;SDS011;42589;45.536;9.032;2023-04-03T05:02:53;18.40;;;12.30;;
56712;SDS011;42589;45.536;9.032;2023-04-03T05:05:54;19.90;;;12.30;;
56712;SDS011;42589;45.536;9.032;2023-04-03T05:08:55;17.17;;;11.52;;
56712;SDS011;42589;45.536;9.032;2023-04-03T05:11:56;14.57;;;10.63;;
56712;SDS011;42589;45.536;9.032;2023-04-03T05:14:59;16.00;;;11.52;;
56712;SDS011;42589;45.536;9.032;2023-04-03T05:18:01;19.23;;;12.45;;
56712;SDS011;42589;45.536;9.032;2023-04-03T05:21:02;15.82;;;11.05;;
56712;SDS011;42589;45.536;9.032;2023-04-03T05:24:04;23.75;;;12.00;;
56712;SDS011;42589;45.536;9.032;2023-04-03T05:27:05;18.58;;;11.05;;
56712;SDS011;42589;45.536;9.032;2023-04-03T05:30:06;17.83;;;11.13;;
56712;SDS011;42589;45.536;9.032;2023-04-03T05:33:07;14.15;;;10.00;;
56712;SDS011;42589;45.536;9.032;2023-04-03T05:36:07;30.95;;;12.77;;
56712;SDS011;42589;45.536;9.032;2023-04-03T05:39:11;19.25;;;12.55;;
56712;SDS011;42589;45.536;9.032;2023-04-03T05:42:12;25.50;;;12.27;;
56712;SDS011;42589;45.536;9.032;2023-04-03T05:45:13;19.15;;;12.90;;
56712;SDS011;42589;45.536;9.032;2023-04-03T05:48:17;26.17;;;12.48;;
56712;SDS011;42589;45.536;9.032;2023-04-03T05:51:19;23.70;;;13.40;;
56712;SDS011;42589;45.536;9.032;2023-04-03T05:54:24;23.70;;;12.70;;
56712;SDS011;42589;45.536;9.032;2023-04-03T05:57:27;18.40;;;12.90;;
56712;SDS011;42589;45.536;9.032;2023-04-03T06:00:29;21.42;;;12.30;;
56712;SDS011;42589;45.536;9.032;2023-04-03T06:03:30;19.92;;;12.55;;
56712;SDS011;42589;45.536;9.032;2023-04-03T06:06:51;19.67;;;12.60;;
56712;SDS011;42589;45.536;9.032;2023-04-03T06:12:57;15.27;;;11.05;;
56712;SDS011;42589;45.536;9.032;2023-04-03T06:15:59;16.17;;;11.38;;
56712;SDS011;42589;45.536;9.032;2023-04-03T06:19:00;14.90;;;10.82;;
56712;SDS011;42589;45.536;9.032;2023-04-03T06:22:00;17.75;;;11.30;;
56712;SDS011;42589;45.536;9.032;2023-04-03T06:25:01;15.48;;;11.10;;
56712;SDS011;42589;45.536;9.032;2023-04-03T06:28:03;13.35;;;11.05;;
56712;SDS011;42589;45.536;9.032;2023-04-03T06:31:04;17.92;;;11.27;;
56712;SDS011;42589;45.536;9.032;2023-04-03T06:34:05;18.95;;;11.65;;
56712;SDS011;42589;45.536;9.032;2023-04-03T06:37:16;17.00;;;12.45;;
56712;SDS011;42589;45.536;9.032;2023-04-03T06:40:21;18.55;;;12.90;;
56712;SDS011;42589;45.536;9.032;2023-04-03T06:43:23;19.30;;;12.93;;
56712;SDS011;42589;45.536;9.032;2023-04-03T06:46:25;21.25;;;13.40;;
56712;SDS011;42589;45.536;9.032;2023-04-03T06:49:27;20.58;;;13.43;;
56712;SDS011;42589;45.536;9.032;2023-04-03T06:52:28;19.38;;;14.00;;
56712;SDS011;42589;45.536;9.032;2023-04-03T06:55:29;22.80;;;15.48;;
56712;SDS011;42589;45.536;9.032;2023-04-03T07:01:39;25.00;;;15.55;;
56712;SDS011;42589;45.536;9.032;2023-04-03T07:04:41;22.80;;;15.77;;
56712;SDS011;42589;45.536;9.032;2023-04-03T07:10:46;24.73;;;15.35;;
56712;SDS011;42589;45.536;9.032;2023-04-03T07:13:47;26.60;;;15.55;;
56712;SDS011;42589;45.536;9.032;2023-04-03T07:16:48;20.98;;;14.07;;
56712;SDS011;42589;45.536;9.032;2023-04-03T07:19:49;23.42;;;15.15;;
56712;SDS011;42589;45.536;9.032;2023-04-03T07:22:50;20.35;;;13.70;;
56712;SDS011;42589;45.536;9.032;2023-04-03T07:25:50;19.30;;;12.73;;
56712;SDS011;42589;45.536;9.032;2023-04-03T07:28:52;16.70;;;12.18;;
56712;SDS011;42589;45.536;9.032;2023-04-03T07:31:53;18.60;;;11.80;;
56712;SDS011;42589;45.536;9.032;2023-04-03T07:34:55;17.65;;;12.15;;
56712;SDS011;42589;45.536;9.032;2023-04-03T07:37:56;17.65;;;12.02;;
56712;SDS011;42589;45.536;9.032;2023-04-03T07:40:58;16.33;;;11.00;;
56712;SDS011;42589;45.536;9.032;2023-04-03T07:43:58;11.75;;;9.30;;
56712;SDS011;42589;45.536;9.032;2023-04-03T07:46:59;12.25;;;8.98;;
56712;SDS011;42589;45.536;9.032;2023-04-03T07:50:00;12.52;;;8.90;;
56712;SDS011;42589;45.536;9.032;2023-04-03T07:53:02;10.30;;;7.57;;
56712;SDS011;42589;45.536;9.032;2023-04-03T07:56:02;12.85;;;7.65;;
56712;SDS011;42589;45.536;9.032;2023-04-03T07:59:04;11.60;;;8.13;;
56712;SDS011;42589;45.536;9.032;2023-04-03T08:02:05;14.50;;;8.07;;
56712;SDS011;42589;45.536;9.032;2023-04-03T08:05:06;9.90;;;7.65;;
56712;SDS011;42589;45.536;9.032;2023-04-03T08:08:08;13.10;;;8.00;;
56712;SDS011;42589;45.536;9.032;2023-04-03T08:11:10;11.25;;;7.97;;
56712;SDS011;42589;45.536;9.032;2023-04-03T08:14:12;10.38;;;7.10;;
56712;SDS011;42589;45.536;9.032;2023-04-03T08:17:16;9.52;;;6.93;;
56712;SDS011;42589;45.536;9.032;2023-04-03T08:20:18;11.05;;;7.40;;
56712;SDS011;42589;45.536;9.032;2023-04-03T08:23:19;9.85;;;6.53;;
56712;SDS011;42589;45.536;9.032;2023-04-03T08:26:20;10.32;;;6.95;;
56712;SDS011;42589;45.536;9.032;2023-04-03T08:29:21;10.38;;;7.05;;
56712;SDS011;42589;45.536;9.032;2023-04-03T08:32:22;12.02;;;7.10;;
56712;SDS011;42589;45.536;9.032;2023-04-03T08:35:23;8.35;;;6.28;;
56712;SDS011;42589;45.536;9.032;2023-04-03T08:38:24;7.68;;;5.93;;
56712;SDS011;42589;45.536;9.032;2023-04-03T08:44:56;8.77;;;5.70;;
56712;SDS011;42589;45.536;9.032;2023-04-03T08:48:05;8.95;;;5.50;;
56712;SDS011;42589;45.536;9.032;2023-04-03T08:51:15;9.35;;;6.20;;
56712;SDS011;42589;45.536;9.032;2023-04-03T08:54:24;9.90;;;5.60;;
56712;SDS011;42589;45.536;9.032;2023-04-03T08:57:34;6.30;;;5.65;;
56712;SDS011;42589;45.536;9.032;2023-04-03T09:00:52;7.55;;;4.60;;
56712;SDS011;42589;45.536;9.032;2023-04-03T09:04:00;9.27;;;5.05;;
56712;SDS011;42589;45.536;9.032;2023-04-03T09:07:04;6.85;;;4.95;;
56712;SDS011;42589;45.536;9.032;2023-04-03T09:10:08;8.13;;;5.53;;
56712;SDS011;42589;45.536;9.032;2023-04-03T09:13:13;6.50;;;5.00;;
56712;SDS011;42589;45.536;9.032;2023-04-03T09:19:54;7.30;;;4.95;;
56712;SDS011;42589;45.536;9.032;2023-04-03T09:23:04;7.07;;;5.20;;
56712;SDS011;42589;45.536;9.032;2023-04-03T09:26:35;13.38;;;5.55;;
56712;SDS011;42589;45.536;9.032;2023-04-03T09:29:42;3.45;;;2.90;;
56712;SDS011;42589;45.536;9.032;2023-04-03T09:32:46;5.07;;;4.32;;
56712;SDS011;42589;45.536;9.032;2023-04-03T09:35:48;5.00;;;4.15;;
56712;SDS011;42589;45.536;9.032;2023-04-03T09:39:02;7.72;;;4.80;;
56712;SDS011;42589;45.536;9.032;2023-04-03T09:42:19;7.05;;;4.95;;
56712;SDS011;42589;45.536;9.032;2023-04-03T09:45:24;6.70;;;4.50;;
56712;SDS011;42589;45.536;9.032;2023-04-03T09:48:33;6.03;;;4.70;;
56712;SDS011;42589;45.536;9.032;2023-04-03T09:51:34;7.95;;;5.60;;
56712;SDS011;42589;45.536;9.032;2023-04-03T09:54:38;8.45;;;5.93;;
56712;SDS011;42589;45.536;9.032;2023-04-03T09:57:40;5.43;;;4.50;;
56712;SDS011;42589;45.536;9.032;2023-04-03T10:00:41;4.70;;;4.00;;
56712;SDS011;42589;45.536;9.032;2023-04-03T10:03:42;6.43;;;5.75;;
56712;SDS011;42589;45.536;9.032;2023-04-03T10:06:47;7.45;;;5.85;;
56712;SDS011;42589;45.536;9.032;2023-04-03T10:10:23;5.47;;;4.95;;
56712;SDS011;42589;45.536;9.032;2023-04-03T10:13:22;7.32;;;5.38;;
56712;SDS011;42589;45.536;9.032;2023-04-03T10:16:25;5.82;;;5.22;;
56712;SDS011;42589;45.536;9.032;2023-04-03T10:23:24;6.25;;;5.15;;
56712;SDS011;42589;45.536;9.032;2023-04-03T10:30:21;7.72;;;4.80;;
56712;SDS011;42589;45.536;9.032;2023-04-03T10:33:39;7.57;;;5.20;;
56712;SDS011;42589;45.536;9.032;2023-04-03T10:36:52;5.72;;;4.63;;
56712;SDS011;42589;45.536;9.032;2023-04-03T10:40:02;6.55;;;4.88;;
56712;SDS011;42589;45.536;9.032;2023-04-03T10:44:07;6.65;;;5.45;;
56712;SDS011;42589;45.536;9.032;2023-04-03T10:46:52;6.28;;;5.28;;
56712;SDS011;42589;45.536;9.032;2023-04-03T10:57:03;7.00;;;5.67;;
56712;SDS011;42589;45.536;9.032;2023-04-03T11:00:06;5.57;;;4.15;;
56712;SDS011;42589;45.536;9.032;2023-04-03T11:03:35;5.30;;;4.38;;
56712;SDS011;42589;45.536;9.032;2023-04-03T11:11:00;6.82;;;4.80;;
56712;SDS011;42589;45.536;9.032;2023-04-03T11:23:31;6.00;;;5.05;;
56712;SDS011;42589;45.536;9.032;2023-04-03T11:26:36;6.43;;;5.00;;
56712;SDS011;42589;45.536;9.032;2023-04-03T11:29:40;5.50;;;5.00;;
56712;SDS011;42589;45.536;9.032;2023-04-03T11:49:02;4.72;;;4.32;;
56712;SDS011;42589;45.536;9.032;2023-04-03T11:52:03;6.68;;;5.22;;
56712;SDS011;42589;45.536;9.032;2023-04-03T11:58:26;8.65;;;4.70;;
56712;SDS011;42589;45.536;9.032;2023-04-03T12:02:16;6.90;;;4.88;;
56712;SDS011;42589;45.536;9.032;2023-04-03T12:11:33;6.95;;;4.65;;
56712;SDS011;42589;45.536;9.032;2023-04-03T12:14:40;5.60;;;4.22;;
56712;SDS011;42589;45.536;9.032;2023-04-03T12:17:41;5.00;;;4.10;;
56712;SDS011;42589;45.536;9.032;2023-04-03T12:20:53;4.57;;;4.00;;
56712;SDS011;42589;45.536;9.032;2023-04-03T12:30:25;5.63;;;3.50;;
56712;SDS011;42589;45.536;9.032;2023-04-03T12:47:02;5.20;;;4.35;;
56712;SDS011;42589;45.536;9.032;2023-04-03T12:50:20;4.40;;;3.70;;
56712;SDS011;42589;45.536;9.032;2023-04-03T12:56:36;5.50;;;3.47;;
56712;SDS011;42589;45.536;9.032;2023-04-03T12:59:37;5.00;;;3.70;;
56712;SDS011;42589;45.536;9.032;2023-04-03T13:02:39;5.72;;;3.78;;
56712;SDS011;42589;45.536;9.032;2023-04-03T13:05:46;6.88;;;3.88;;
56712;SDS011;42589;45.536;9.032;2023-04-03T13:08:50;4.03;;;3.00;;
56712;SDS011;42589;45.536;9.032;2023-04-03T13:12:01;5.53;;;3.40;;
56712;SDS011;42589;45.536;9.032;2023-04-03T13:15:58;5.97;;;3.72;;
56712;SDS011;42589;45.536;9.032;2023-04-03T13:18:41;5.40;;;3.40;;
56712;SDS011;42589;45.536;9.032;2023-04-03T13:21:43;6.07;;;3.40;;
56712;SDS011;42589;45.536;9.032;2023-04-03T13:24:45;5.88;;;3.70;;
56712;SDS011;42589;45.536;9.032;2023-04-03T13:27:49;9.00;;;3.53;;
56712;SDS011;42589;45.536;9.032;2023-04-03T13:34:03;4.68;;;3.10;;
56712;SDS011;42589;45.536;9.032;2023-04-03T13:37:18;8.48;;;3.08;;
56712;SDS011;42589;45.536;9.032;2023-04-03T13:40:30;3.30;;;2.97;;
56712;SDS011;42589;45.536;9.032;2023-04-03T13:43:35;5.03;;;3.22;;
56712;SDS011;42589;45.536;9.032;2023-04-03T13:46:37;5.40;;;2.97;;
56712;SDS011;42589;45.536;9.032;2023-04-03T13:49:39;4.20;;;2.60;;
56712;SDS011;42589;45.536;9.032;2023-04-03T13:52:46;5.20;;;3.20;;
56712;SDS011;42589;45.536;9.032;2023-04-03T14:02:23;5.47;;;3.20;;
56712;SDS011;42589;45.536;9.032;2023-04-03T14:05:31;3.10;;;2.75;;
56712;SDS011;42589;45.536;9.032;2023-04-03T14:08:32;4.60;;;2.80;;
56712;SDS011;42589;45.536;9.032;2023-04-03T14:11:34;5.07;;;3.20;;
56712;SDS011;42589;45.536;9.032;2023-04-03T14:14:35;6.03;;;3.20;;
56712;SDS011;42589;45.536;9.032;2023-04-03T14:17:38;3.30;;;2.55;;
56712;SDS011;42589;45.536;9.032;2023-04-03T14:20:39;4.72;;;2.83;;
56712;SDS011;42589;45.536;9.032;2023-04-03T14:23:40;3.63;;;2.33;;
56712;SDS011;42589;45.536;9.032;2023-04-03T14:26:44;4.15;;;2.50;;
56712;SDS011;42589;45.536;9.032;2023-04-03T14:29:46;5.43;;;2.90;;
56712;SDS011;42589;45.536;9.032;2023-04-03T14:32:48;3.63;;;2.65;;
56712;SDS011;42589;45.536;9.032;2023-04-03T14:35:49;2.85;;;2.63;;
56712;SDS011;42589;45.536;9.032;2023-04-03T14:38:50;3.25;;;2.80;;
56712;SDS011;42589;45.536;9.032;2023-04-03T14:41:52;4.53;;;2.78;;
56712;SDS011;42589;45.536;9.032;2023-04-03T14:44:54;6.07;;;2.97;;
56712;SDS011;42589;45.536;9.032;2023-04-03T14:47:55;4.70;;;2.65;;
56712;SDS011;42589;45.536;9.032;2023-04-03T14:50:57;5.65;;;3.20;;
56712;SDS011;42589;45.536;9.032;2023-04-03T14:53:58;4.75;;;2.92;;
56712;SDS011;42589;45.536;9.032;2023-04-03T14:56:59;3.22;;;2.90;;
56712;SDS011;42589;45.536;9.032;2023-04-03T15:00:03;6.40;;;2.67;;
56712;SDS011;42589;45.536;9.032;2023-04-03T15:03:04;3.80;;;3.10;;
56712;SDS011;42589;45.536;9.032;2023-04-03T15:06:05;3.13;;;2.40;;
56712;SDS011;42589;45.536;9.032;2023-04-03T15:09:23;7.80;;;2.83;;
56712;SDS011;42589;45.536;9.032;2023-04-03T15:12:28;6.25;;;2.85;;
56712;SDS011;42589;45.536;9.032;2023-04-03T15:15:29;3.22;;;2.72;;
56712;SDS011;42589;45.536;9.032;2023-04-03T15:18:31;6.10;;;2.72;;
56712;SDS011;42589;45.536;9.032;2023-04-03T15:21:38;4.55;;;2.80;;
56712;SDS011;42589;45.536;9.032;2023-04-03T15:24:41;7.18;;;2.70;;
56712;SDS011;42589;45.536;9.032;2023-04-03T15:27:42;4.95;;;2.60;;
56712;SDS011;42589;45.536;9.032;2023-04-03T15:30:43;4.20;;;2.50;;
56712;SDS011;42589;45.536;9.032;2023-04-03T15:33:44;3.67;;;2.65;;
56712;SDS011;42589;45.536;9.032;2023-04-03T15:36:44;3.75;;;2.55;;
56712;SDS011;42589;45.536;9.032;2023-04-03T15:39:46;8.07;;;2.75;;
56712;SDS011;42589;45.536;9.032;2023-04-03T15:42:47;3.83;;;2.80;;
56712;SDS011;42589;45.536;9.032;2023-04-03T15:45:47;5.43;;;2.97;;
56712;SDS011;42589;45.536;9.032;2023-04-03T15:48:49;6.32;;;3.03;;
56712;SDS011;42589;45.536;9.032;2023-04-03T15:51:50;3.95;;;2.85;;
56712;SDS011;42589;45.536;9.032;2023-04-03T15:54:51;8.85;;;3.10;;
56712;SDS011;42589;45.536;9.032;2023-04-03T15:57:53;5.05;;;2.95;;
56712;SDS011;42589;45.536;9.032;2023-04-03T16:00:54;5.80;;;3.30;;
56712;SDS011;42589;45.536;9.032;2023-04-03T16:03:55;4.05;;;3.08;;
56712;SDS011;42589;45.536;9.032;2023-04-03T16:06:55;5.40;;;3.00;;
56712;SDS011;42589;45.536;9.032;2023-04-03T16:09:56;6.70;;;3.38;;
56712;SDS011;42589;45.536;9.032;2023-04-03T16:12:57;9.25;;;3.60;;
56712;SDS011;42589;45.536;9.032;2023-04-03T16:15:58;5.95;;;3.10;;
56712;SDS011;42589;45.536;9.032;2023-04-03T16:18:59;6.22;;;3.75;;
56712;SDS011;42589;45.536;9.032;2023-04-03T16:22:01;6.05;;;3.08;;
56712;SDS011;42589;45.536;9.032;2023-04-03T16:25:03;8.43;;;3.35;;
56712;SDS011;42589;45.536;9.032;2023-04-03T16:28:05;10.30;;;3.47;;
56712;SDS011;42589;45.536;9.032;2023-04-03T16:31:07;5.95;;;3.58;;
56712;SDS011;42589;45.536;9.032;2023-04-03T16:34:08;9.10;;;3.20;;
56712;SDS011;42589;45.536;9.032;2023-04-03T16:37:09;7.38;;;3.47;;
56712;SDS011;42589;45.536;9.032;2023-04-03T16:40:11;5.68;;;3.45;;
56712;SDS011;42589;45.536;9.032;2023-04-03T16:43:12;7.40;;;3.47;;
56712;SDS011;42589;45.536;9.032;2023-04-03T16:46:13;8.57;;;3.17;;
56712;SDS011;42589;45.536;9.032;2023-04-03T16:49:14;4.65;;;2.90;;
56712;SDS011;42589;45.536;9.032;2023-04-03T16:52:15;6.13;;;3.53;;
56712;SDS011;42589;45.536;9.032;2023-04-03T16:55:16;6.55;;;3.20;;
56712;SDS011;42589;45.536;9.032;2023-04-03T16:58:18;8.48;;;3.30;;
56712;SDS011;42589;45.536;9.032;2023-04-03T17:01:20;7.00;;;3.30;;
56712;SDS011;42589;45.536;9.032;2023-04-03T17:04:21;5.63;;;3.15;;
56712;SDS011;42589;45.536;9.032;2023-04-03T17:07:23;6.40;;;3.13;;
56712;SDS011;42589;45.536;9.032;2023-04-03T17:10:26;6.15;;;3.08;;
56712;SDS011;42589;45.536;9.032;2023-04-03T17:13:26;6.78;;;3.30;;
56712;SDS011;42589;45.536;9.032;2023-04-03T17:16:32;9.40;;;3.08;;
56712;SDS011;42589;45.536;9.032;2023-04-03T17:22:37;5.80;;;2.72;;
56712;SDS011;42589;45.536;9.032;2023-04-03T17:25:38;4.25;;;2.60;;
56712;SDS011;42589;45.536;9.032;2023-04-03T17:28:39;6.50;;;3.17;;
56712;SDS011;42589;45.536;9.032;2023-04-03T17:31:40;8.70;;;2.97;;
56712;SDS011;42589;45.536;9.032;2023-04-03T17:34:44;4.70;;;2.78;;
56712;SDS011;42589;45.536;9.032;2023-04-03T17:37:46;8.52;;;3.47;;
56712;SDS011;42589;45.536;9.032;2023-04-03T17:40:49;7.07;;;2.83;;
56712;SDS011;42589;45.536;9.032;2023-04-03T17:43:50;7.45;;;2.90;;
56712;SDS011;42589;45.536;9.032;2023-04-03T17:46:51;3.42;;;2.58;;
56712;SDS011;42589;45.536;9.032;2023-04-03T17:49:54;4.50;;;2.50;;
56712;SDS011;42589;45.536;9.032;2023-04-03T17:52:55;4.93;;;2.38;;
56712;SDS011;42589;45.536;9.032;2023-04-03T17:55:56;5.47;;;2.60;;
56712;SDS011;42589;45.536;9.032;2023-04-03T17:58:57;9.45;;;2.60;;
56712;SDS011;42589;45.536;9.032;2023-04-03T18:01:58;5.82;;;2.47;;
56712;SDS011;42589;45.536;9.032;2023-04-03T18:04:58;6.78;;;3.00;;
56712;SDS011;42589;45.536;9.032;2023-04-03T18:07:59;5.00;;;2.60;;
56712;SDS011;42589;45.536;9.032;2023-04-03T18:11:00;6.88;;;2.83;;
56712;SDS011;42589;45.536;9.032;2023-04-03T18:14:02;5.70;;;3.20;;
56712;SDS011;42589;45.536;9.032;2023-04-03T18:17:06;5.55;;;2.72;;
56712;SDS011;42589;45.536;9.032;2023-04-03T18:20:08;4.07;;;2.63;;
56712;SDS011;42589;45.536;9.032;2023-04-03T18:23:10;7.38;;;3.00;;
56712;SDS011;42589;45.536;9.032;2023-04-03T18:26:11;5.93;;;2.67;;
56712;SDS011;42589;45.536;9.032;2023-04-03T18:29:14;4.43;;;2.60;;
56712;SDS011;42589;45.536;9.032;2023-04-03T18:32:18;4.93;;;3.03;;
56712;SDS011;42589;45.536;9.032;2023-04-03T18:35:20;5.88;;;2.83;;
56712;SDS011;42589;45.536;9.032;2023-04-03T18:38:21;8.63;;;2.80;;
56712;SDS011;42589;45.536;9.032;2023-04-03T18:41:22;8.10;;;3.00;;
56712;SDS011;42589;45.536;9.032;2023-04-03T18:44:26;6.05;;;2.95;;
56712;SDS011;42589;45.536;9.032;2023-04-03T18:47:28;8.88;;;2.83;;
56712;SDS011;42589;45.536;9.032;2023-04-03T18:50:28;7.40;;;3.22;;
56712;SDS011;42589;45.536;9.032;2023-04-03T18:53:29;4.15;;;2.83;;
56712;SDS011;42589;45.536;9.032;2023-04-03T18:56:31;6.05;;;3.20;;
56712;SDS011;42589;45.536;9.032;2023-04-03T18:59:32;5.68;;;3.13;;
56712;SDS011;42589;45.536;9.032;2023-04-03T19:02:32;7.55;;;2.83;;
56712;SDS011;42589;45.536;9.032;2023-04-03T19:05:33;6.90;;;2.90;;
56712;SDS011;42589;45.536;9.032;2023-04-03T19:08:34;6.03;;;2.88;;
56712;SDS011;42589;45.536;9.032;2023-04-03T19:11:34;5.28;;;3.13;;
56712;SDS011;42589;45.536;9.032;2023-04-03T19:14:35;6.78;;;3.40;;
56712;SDS011;42589;45.536;9.032;2023-04-03T19:17:36;4.82;;;3.13;;
56712;SDS011;42589;45.536;9.032;2023-04-03T19:20:37;5.97;;;3.00;;
56712;SDS011;42589;45.536;9.032;2023-04-03T19:23:38;6.82;;;2.65;;
56712;SDS011;42589;45.536;9.032;2023-04-03T19:26:58;4.28;;;2.55;;
56712;SDS011;42589;45.536;9.032;2023-04-03T19:29:59;6.15;;;2.97;;
56712;SDS011;42589;45.536;9.032;2023-04-03T19:33:00;9.25;;;3.08;;
56712;SDS011;42589;45.536;9.032;2023-04-03T19:36:04;7.72;;;2.58;;
56712;SDS011;42589;45.536;9.032;2023-04-03T19:39:05;6.30;;;2.80;;
56712;SDS011;42589;45.536;9.032;2023-04-03T19:42:06;4.53;;;2.50;;
56712;SDS011;42589;45.536;9.032;2023-04-03T19:45:08;6.35;;;2.75;;
56712;SDS011;42589;45.536;9.032;2023-04-03T19:48:11;5.47;;;2.40;;
56712;SDS011;42589;45.536;9.032;2023-04-03T19:51:12;6.45;;;2.63;;
56712;SDS011;42589;45.536;9.032;2023-04-03T19:54:13;3.50;;;2.17;;
56712;SDS011;42589;45.536;9.032;2023-04-03T19:57:14;7.60;;;2.47;;
56712;SDS011;42589;45.536;9.032;2023-04-03T20:00:15;7.95;;;2.72;;
56712;SDS011;42589;45.536;9.032;2023-04-03T20:03:16;8.00;;;2.53;;